Time;durP1;ratioP1;P1;durP2;ratioP2;P2;SDS_P1;SDS_P2;PMS_P1;PMS_P2;Temp;Humidity;BMP_temperature;BMP_pressure;BME280_temperature;BME280_humidity;BME280_pressure;Samples;Min_cycle;Max_cycle;Signal;HPM_P1;HPM_P2
2021/03/04 00:00:01;;;;;;;18.83;13.97;;;8.20;35.90;;;;;;10449968;28;20229;-74
2021/03/04 00:05:05;;;;;;;15.13;12.80;;;8.20;36.00;;;;;;10436008;28;20221;-73
2021/03/04 00:10:10;;;;;;;14.37;12.07;;;8.10;35.90;;;;;;10444533;28;20243;-73
2021/03/04 00:15:15;;;;;;;15.10;12.90;;;8.10;36.00;;;;;;10441846;28;20252;-73
2021/03/04 00:20:21;;;;;;;16.03;13.30;;;8.00;36.00;;;;;;10439388;28;20308;-73
2021/03/04 00:25:24;;;;;;;14.43;12.90;;;8.00;36.20;;;;;;10438951;28;20692;-73
2021/03/04 00:30:28;;;;;;;16.53;13.63;;;7.90;36.00;;;;;;10438675;28;20311;-73
2021/03/04 00:35:30;;;;;;;17.70;13.87;;;7.90;36.30;;;;;;10439867;28;20597;-73
2021/03/04 00:40:33;;;;;;;15.00;13.27;;;7.80;36.10;;;;;;10441657;28;20738;-73
2021/03/04 00:45:36;;;;;;;14.37;11.73;;;7.80;36.20;;;;;;10443952;28;20308;-73
2021/03/04 00:50:41;;;;;;;13.50;11.77;;;7.80;36.40;;;;;;10439664;28;20236;-73
2021/03/04 00:55:44;;;;;;;15.07;12.30;;;7.80;36.30;;;;;;10440108;28;20282;-72
2021/03/04 01:00:47;;;;;;;13.80;11.90;;;7.80;36.30;;;;;;10438570;28;20237;-72
2021/03/04 01:05:50;;;;;;;14.27;12.77;;;7.80;36.60;;;;;;10442191;28;20239;-73
2021/03/04 01:10:52;;;;;;;13.80;12.33;;;7.80;36.40;;;;;;10435241;28;20229;-72
2021/03/04 01:15:55;;;;;;;13.17;11.37;;;7.80;36.40;;;;;;10443360;28;20239;-73
2021/03/04 01:21:03;;;;;;;14.90;12.00;;;7.70;36.50;;;;;;10437560;28;20226;-72
2021/03/04 01:26:06;;;;;;;15.97;12.63;;;7.70;36.90;;;;;;10446060;28;20302;-72
2021/03/04 01:31:10;;;;;;;13.00;11.63;;;7.70;36.90;;;;;;10437883;28;20240;-73
2021/03/04 01:36:12;;;;;;;14.13;12.13;;;7.70;36.80;;;;;;10436169;28;20221;-73
2021/03/04 01:41:14;;;;;;;14.50;12.93;;;7.70;36.70;;;;;;10443134;28;20224;-72
2021/03/04 01:46:18;;;;;;;14.53;13.03;;;7.70;36.90;;;;;;10435480;28;20231;-73
2021/03/04 01:51:24;;;;;;;13.30;11.90;;;7.70;37.00;;;;;;10436418;28;20651;-72
2021/03/04 01:56:27;;;;;;;13.87;12.37;;;7.70;36.90;;;;;;10441447;28;20547;-73
2021/03/04 02:01:31;;;;;;;12.23;10.93;;;7.70;36.90;;;;;;10432229;28;20233;-73
2021/03/04 02:06:39;;;;;;;12.97;10.90;;;7.70;37.10;;;;;;10438867;28;20236;-73
2021/03/04 02:11:48;;;;;;;14.13;11.77;;;7.70;37.40;;;;;;10438709;28;20725;-73
2021/03/04 02:16:54;;;;;;;14.93;11.77;;;7.80;38.30;;;;;;10431210;28;20224;-73
2021/03/04 02:22:10;;;;;;;11.77;10.57;;;7.80;37.30;;;;;;10431709;28;20225;-73
2021/03/04 02:27:15;;;;;;;12.60;11.03;;;7.80;37.60;;;;;;10427355;28;20220;-72
2021/03/04 02:32:23;;;;;;;13.73;12.03;;;7.80;37.20;;;;;;10432055;28;20310;-73
2021/03/04 02:37:30;;;;;;;14.33;12.30;;;7.80;37.60;;;;;;10436864;28;20228;-72
2021/03/04 02:42:34;;;;;;;12.97;11.57;;;7.80;37.60;;;;;;10434479;28;20229;-73
2021/03/04 02:47:38;;;;;;;14.50;12.97;;;7.80;37.20;;;;;;10434442;28;20248;-72
2021/03/04 02:52:41;;;;;;;14.37;12.50;;;7.70;37.60;;;;;;10433292;28;20233;-72
2021/03/04 02:57:47;;;;;;;12.67;10.97;;;7.60;37.20;;;;;;10435524;28;20305;-73
2021/03/04 03:02:51;;;;;;;15.13;12.60;;;7.60;37.60;;;;;;10436600;28;20233;-73
2021/03/04 03:07:54;;;;;;;15.53;12.73;;;7.60;37.50;;;;;;10445121;28;20222;-72
2021/03/04 03:12:58;;;;;;;15.40;12.73;;;7.60;37.50;;;;;;10443066;28;20229;-72
2021/03/04 03:18:00;;;;;;;14.00;12.30;;;7.60;37.70;;;;;;10444455;28;20218;-72
2021/03/04 03:23:04;;;;;;;16.53;12.73;;;7.60;37.50;;;;;;10445323;28;20588;-73
2021/03/04 03:28:07;;;;;;;14.50;12.60;;;7.50;37.90;;;;;;10443057;28;20700;-72
2021/03/04 03:33:13;;;;;;;15.60;12.50;;;7.50;37.80;;;;;;10445656;28;20231;-72
2021/03/04 03:38:16;;;;;;;14.27;12.27;;;7.50;38.10;;;;;;10436265;28;20712;-74
2021/03/04 03:43:21;;;;;;;15.20;13.30;;;7.50;38.10;;;;;;10439364;28;20213;-72
2021/03/04 03:48:26;;;;;;;15.10;12.20;;;7.50;38.30;;;;;;10441232;28;20226;-72
2021/03/04 03:53:29;;;;;;;15.27;12.90;;;7.50;38.20;;;;;;10439385;28;20316;-73
2021/03/04 03:58:37;;;;;;;13.20;11.77;;;7.50;38.20;;;;;;10439868;28;20229;-72
2021/03/04 04:03:39;;;;;;;14.13;12.00;;;7.60;38.50;;;;;;10442412;28;20225;-73
2021/03/04 04:08:42;;;;;;;14.57;12.80;;;7.60;38.20;;;;;;10435304;28;20280;-73
2021/03/04 04:13:45;;;;;;;14.53;12.67;;;7.70;38.30;;;;;;10434722;28;20312;-72
2021/03/04 04:18:48;;;;;;;14.13;12.60;;;7.80;38.30;;;;;;10440468;28;20507;-72
2021/03/04 04:23:51;;;;;;;15.20;12.87;;;7.80;38.10;;;;;;10442400;28;20596;-72
2021/03/04 04:28:54;;;;;;;14.53;13.03;;;7.80;38.10;;;;;;10435240;28;20241;-72
2021/03/04 04:33:57;;;;;;;14.20;12.43;;;7.80;38.20;;;;;;10442788;28;20783;-73
2021/03/04 04:38:59;;;;;;;17.60;14.67;;;7.80;38.00;;;;;;10435398;28;20229;-72
2021/03/04 04:44:03;;;;;;;15.97;14.27;;;7.90;38.10;;;;;;10440753;28;20235;-73
2021/03/04 04:49:05;;;;;;;14.07;12.50;;;7.90;38.30;;;;;;10441837;28;20311;-73
2021/03/04 04:54:08;;;;;;;16.83;13.30;;;7.90;38.10;;;;;;10436494;28;20807;-73
2021/03/04 04:59:11;;;;;;;16.03;14.33;;;7.80;38.20;;;;;;10439541;28;20237;-73
2021/03/04 05:04:13;;;;;;;19.23;15.97;;;7.80;38.30;;;;;;10435689;28;20314;-73
2021/03/04 05:09:16;;;;;;;16.43;14.00;;;7.80;38.20;;;;;;10429127;28;20256;-73
2021/03/04 05:14:19;;;;;;;17.40;15.13;;;7.80;38.20;;;;;;10441757;28;20232;-72
2021/03/04 05:19:21;;;;;;;21.00;15.30;;;7.90;38.50;;;;;;10435491;28;20276;-73
2021/03/04 05:24:24;;;;;;;17.83;15.33;;;7.90;38.30;;;;;;10436187;28;20299;-73
2021/03/04 05:29:27;;;;;;;15.87;13.60;;;7.90;38.30;;;;;;10480696;23;20328;-71
2021/03/04 05:34:29;;;;;;;17.57;14.27;;;8.00;38.70;;;;;;10470639;28;21248;-71
2021/03/04 05:39:31;;;;;;;14.07;12.67;;;8.00;38.60;;;;;;10473781;28;20224;-71
2021/03/04 05:44:35;;;;;;;15.90;14.13;;;8.00;38.50;;;;;;10466406;28;20699;-71
2021/03/04 05:49:43;;;;;;;15.70;12.83;;;8.00;38.80;;;;;;10476297;22;20299;-71
2021/03/04 05:54:46;;;;;;;14.33;12.70;;;8.10;38.70;;;;;;10451543;28;20248;-72
2021/03/04 05:59:52;;;;;;;15.67;13.73;;;8.20;38.70;;;;;;10459098;28;20317;-72
2021/03/04 06:04:54;;;;;;;16.80;14.40;;;8.20;39.00;;;;;;10390896;22;20231;-72
2021/03/04 06:09:57;;;;;;;17.73;14.30;;;8.20;38.30;;;;;;10332423;28;20225;-72
2021/03/04 06:15:01;;;;;;;17.57;14.03;;;8.20;38.40;;;;;;10317234;28;20229;-72
2021/03/04 06:20:05;;;;;;;19.33;14.80;;;8.20;38.70;;;;;;10312654;28;20222;-71
2021/03/04 06:25:09;;;;;;;16.17;13.17;;;8.20;38.70;;;;;;10324815;28;20306;-71
2021/03/04 06:30:15;;;;;;;16.40;13.53;;;8.20;38.50;;;;;;10324756;28;20251;-72
2021/03/04 06:35:17;;;;;;;17.53;14.93;;;8.20;39.00;;;;;;10337151;28;20319;-72
2021/03/04 06:40:22;;;;;;;16.93;14.33;;;8.20;38.60;;;;;;10325214;28;20318;-72
2021/03/04 06:45:31;;;;;;;27.17;16.47;;;8.20;38.80;;;;;;10322745;28;20228;-72
2021/03/04 06:50:34;;;;;;;15.30;13.13;;;8.20;39.20;;;;;;10327375;28;20331;-72
2021/03/04 06:55:46;;;;;;;19.03;14.30;;;8.20;38.80;;;;;;10321311;28;20234;-72
2021/03/04 07:01:02;;;;;;;18.57;13.33;;;8.10;38.80;;;;;;10321367;28;20342;-72
2021/03/04 07:06:06;;;;;;;15.87;13.27;;;8.20;39.40;;;;;;10335265;28;20235;-72
2021/03/04 07:11:10;;;;;;;14.63;13.10;;;8.30;39.30;;;;;;10329768;28;20737;-72
2021/03/04 07:16:17;;;;;;;17.33;14.73;;;8.40;39.00;;;;;;10343881;28;20349;-72
2021/03/04 07:21:22;;;;;;;17.77;13.83;;;8.50;39.50;;;;;;10336758;28;20269;-72
2021/03/04 07:26:24;;;;;;;16.13;14.10;;;8.50;39.00;;;;;;10349376;28;20239;-72
2021/03/04 07:31:27;;;;;;;20.17;14.40;;;8.60;39.00;;;;;;10348462;28;20241;-72
2021/03/04 07:36:31;;;;;;;17.17;13.17;;;8.70;39.00;;;;;;10346131;28;20764;-72
2021/03/04 07:41:43;;;;;;;16.33;13.17;;;8.80;39.00;;;;;;10337003;28;20846;-72
2021/03/04 07:46:53;;;;;;;18.07;13.83;;;8.80;39.30;;;;;;10346511;28;20226;-75
2021/03/04 07:52:00;;;;;;;16.93;15.03;;;8.90;39.40;;;;;;10339333;28;20223;-74
2021/03/04 07:57:03;;;;;;;17.30;14.93;;;9.00;39.50;;;;;;10347385;28;20708;-74
2021/03/04 08:02:06;;;;;;;19.50;14.47;;;9.00;39.20;;;;;;10344271;28;20234;-74
2021/03/04 08:07:09;;;;;;;17.57;14.50;;;9.10;40.00;;;;;;10338479;28;20227;-74
2021/03/04 08:12:12;;;;;;;18.80;14.07;;;9.20;39.10;;;;;;10350248;28;20230;-74
2021/03/04 08:17:15;;;;;;;15.00;13.33;;;9.30;39.10;;;;;;10339642;28;20310;-74
2021/03/04 08:22:21;;;;;;;15.07;13.43;;;9.40;39.20;;;;;;10342016;28;20258;-74
2021/03/04 08:27:23;;;;;;;19.37;13.70;;;9.50;39.10;;;;;;10340021;28;20242;-74
2021/03/04 08:32:26;;;;;;;15.77;13.13;;;9.60;38.90;;;;;;10346759;28;20238;-74
2021/03/04 08:37:29;;;;;;;17.50;13.30;;;9.80;39.20;;;;;;10341619;28;20521;-74
2021/03/04 08:42:31;;;;;;;15.00;13.13;;;9.90;38.90;;;;;;10342835;28;20230;-74
2021/03/04 08:47:39;;;;;;;19.17;13.53;;;10.00;37.80;;;;;;10340703;28;20226;-74
2021/03/04 08:52:42;;;;;;;18.30;14.97;;;10.20;37.90;;;;;;10345637;28;20253;-74
2021/03/04 08:57:44;;;;;;;17.27;13.20;;;10.30;37.70;;;;;;10345533;28;20241;-74
2021/03/04 09:02:48;;;;;;;15.23;12.83;;;10.40;37.60;;;;;;10347677;28;20237;-74
2021/03/04 09:07:50;;;;;;;19.80;12.97;;;10.60;37.50;;;;;;10344117;28;20231;-73
2021/03/04 09:12:53;;;;;;;16.17;12.70;;;10.70;37.30;;;;;;10334010;28;20235;-73
2021/03/04 09:17:56;;;;;;;16.27;12.63;;;10.80;38.10;;;;;;10343727;28;20583;-73
2021/03/04 09:22:59;;;;;;;21.23;12.93;;;10.90;37.20;;;;;;10334088;28;20777;-74
2021/03/04 09:28:01;;;;;;;16.10;13.00;;;11.00;37.10;;;;;;10340127;28;20221;-74
2021/03/04 09:33:16;;;;;;;17.63;13.33;;;11.20;37.10;;;;;;10344892;28;20575;-74
2021/03/04 09:38:19;;;;;;;17.97;12.93;;;11.30;36.80;;;;;;10338321;28;20317;-73
2021/03/04 09:43:23;;;;;;;14.97;12.37;;;11.40;37.00;;;;;;10342762;28;20364;-74
2021/03/04 09:48:33;;;;;;;20.40;13.10;;;11.50;37.10;;;;;;10356781;28;20230;-74
2021/03/04 09:53:46;;;;;;;14.43;12.87;;;11.70;37.90;;;;;;10353287;28;20231;-73
2021/03/04 09:58:49;;;;;;;15.73;13.20;;;11.80;36.70;;;;;;10334905;28;20725;-73
2021/03/04 10:04:00;;;;;;;15.50;12.10;;;12.00;36.80;;;;;;10347809;28;20241;-73
2021/03/04 10:09:04;;;;;;;13.20;11.67;;;12.20;36.40;;;;;;10341955;28;20222;-73
2021/03/04 10:14:10;;;;;;;17.23;12.07;;;12.40;36.50;;;;;;10343140;28;20840;-73
2021/03/04 10:19:13;;;;;;;18.50;13.53;;;12.70;35.90;;;;;;10352259;28;20575;-73
2021/03/04 10:24:15;;;;;;;16.50;13.93;;;13.00;36.10;;;;;;10358407;28;20226;-73
2021/03/04 10:29:17;;;;;;;17.50;13.90;;;13.30;35.50;;;;;;10355256;28;20222;-73
2021/03/04 10:34:21;;;;;;;17.67;13.93;;;13.50;35.50;;;;;;10351217;28;20237;-73
2021/03/04 10:39:23;;;;;;;16.27;13.67;;;13.70;34.80;;;;;;10343987;28;20234;-73
2021/03/04 10:44:25;;;;;;;17.63;13.27;;;13.90;34.60;;;;;;10352310;28;20318;-73
2021/03/04 10:49:28;;;;;;;15.37;12.87;;;14.10;34.70;;;;;;10341647;28;20235;-73
2021/03/04 10:54:31;;;;;;;17.20;13.50;;;14.30;34.50;;;;;;10353195;28;20233;-73
2021/03/04 10:59:33;;;;;;;17.60;13.30;;;14.40;34.30;;;;;;10343325;28;20242;-74
2021/03/04 11:04:36;;;;;;;18.57;13.80;;;14.50;33.60;;;;;;10352693;28;20325;-74
2021/03/04 11:09:38;;;;;;;16.07;13.50;;;14.60;33.30;;;;;;10349494;28;20226;-73
2021/03/04 11:14:41;;;;;;;14.83;12.10;;;14.80;33.50;;;;;;10347172;28;20228;-74
2021/03/04 11:19:44;;;;;;;14.87;12.73;;;14.90;33.50;;;;;;10356449;28;20229;-74
2021/03/04 11:24:47;;;;;;;14.37;12.20;;;15.10;32.90;;;;;;10343946;28;20230;-74
2021/03/04 11:29:49;;;;;;;19.67;13.50;;;15.20;32.30;;;;;;10340324;28;20607;-74
2021/03/04 11:34:53;;;;;;;16.97;12.47;;;15.20;32.30;;;;;;10346747;28;20604;-74
2021/03/04 11:39:55;;;;;;;17.93;12.83;;;15.30;32.40;;;;;;10357723;28;20222;-74
2021/03/04 11:44:57;;;;;;;15.07;11.83;;;15.40;32.50;;;;;;10346192;28;20225;-75
2021/03/04 11:50:01;;;;;;;15.73;12.13;;;15.60;32.60;;;;;;10364281;28;20250;-74
2021/03/04 11:55:05;;;;;;;15.47;11.87;;;15.80;31.80;;;;;;10352552;28;20595;-74
2021/03/04 12:00:09;;;;;;;16.13;12.73;;;15.90;32.00;;;;;;10351768;28;20593;-74
2021/03/04 12:05:13;;;;;;;14.47;11.53;;;16.00;31.70;;;;;;10413468;22;20729;-72
2021/03/04 12:10:16;;;;;;;15.57;12.20;;;16.20;30.90;;;;;;10405475;28;20222;-72
2021/03/04 12:15:18;;;;;;;15.77;12.00;;;16.40;30.60;;;;;;10377560;28;20257;-71
2021/03/04 12:20:21;;;;;;;18.80;11.57;;;16.40;30.60;;;;;;10374381;28;20245;-71
2021/03/04 12:25:23;;;;;;;14.27;10.93;;;16.40;30.30;;;;;;10372013;28;20226;-72
2021/03/04 12:30:29;;;;;;;11.30;9.67;;;16.50;30.20;;;;;;10368977;28;20309;-73
2021/03/04 12:35:32;;;;;;;13.63;10.10;;;16.50;30.30;;;;;;10370595;28;20767;-72
2021/03/04 12:40:36;;;;;;;11.07;9.90;;;16.60;29.20;;;;;;10368025;28;20267;-72
2021/03/04 12:45:38;;;;;;;15.70;10.83;;;16.70;29.60;;;;;;10373709;28;20797;-73
2021/03/04 12:50:42;;;;;;;11.77;8.83;;;16.70;29.70;;;;;;10367241;28;20284;-71
2021/03/04 12:55:44;;;;;;;11.70;8.67;;;16.80;29.20;;;;;;10378080;28;20233;-72
2021/03/04 13:00:47;;;;;;;13.03;8.53;;;16.80;29.00;;;;;;10360162;28;20284;-72
2021/03/04 13:06:06;;;;;;;13.77;9.67;;;16.80;28.10;;;;;;10373121;28;20292;-72
2021/03/04 13:11:28;;;;;;;11.17;7.97;;;16.80;28.00;;;;;;10362235;28;20682;-72
2021/03/04 13:16:30;;;;;;;13.50;8.40;;;16.80;28.30;;;;;;10366515;28;20588;-72
2021/03/04 13:21:33;;;;;;;11.43;8.50;;;16.80;28.80;;;;;;10375589;28;20319;-72
2021/03/04 13:26:37;;;;;;;11.90;8.10;;;16.80;28.40;;;;;;10368068;28;20653;-71
2021/03/04 13:31:39;;;;;;;12.57;8.30;;;16.90;28.90;;;;;;10362872;28;20222;-72
2021/03/04 13:36:43;;;;;;;16.37;8.70;;;16.90;28.60;;;;;;10365133;28;20222;-71
2021/03/04 13:41:45;;;;;;;11.87;8.63;;;17.00;28.80;;;;;;10364659;28;20722;-71
2021/03/04 13:46:47;;;;;;;13.50;8.90;;;17.00;28.40;;;;;;10370050;28;20236;-70
2021/03/04 13:51:50;;;;;;;12.30;9.87;;;17.00;28.50;;;;;;10366142;28;20232;-71
2021/03/04 13:56:52;;;;;;;12.07;9.77;;;17.00;28.10;;;;;;10365900;28;20242;-71
2021/03/04 14:01:55;;;;;;;12.00;9.00;;;17.00;28.80;;;;;;10365213;28;20644;-71
2021/03/04 14:06:58;;;;;;;11.83;9.17;;;17.00;28.90;;;;;;10351397;28;20314;-71
2021/03/04 14:12:00;;;;;;;12.07;10.53;;;17.10;28.60;;;;;;10360707;28;20226;-71
2021/03/04 14:17:03;;;;;;;12.83;10.37;;;17.10;28.60;;;;;;10356534;28;20637;-72
2021/03/04 14:22:06;;;;;;;14.10;9.33;;;17.10;28.50;;;;;;10360017;28;20330;-70
2021/03/04 14:27:08;;;;;;;15.37;10.93;;;17.10;28.30;;;;;;10354646;28;20240;-71
2021/03/04 14:32:11;;;;;;;13.47;10.47;;;17.20;28.40;;;;;;10356932;28;20236;-71
2021/03/04 14:37:14;;;;;;;11.63;10.23;;;17.10;28.30;;;;;;10367133;28;20231;-71
2021/03/04 14:42:16;;;;;;;11.90;10.57;;;17.10;28.20;;;;;;10358005;28;20245;-71
2021/03/04 14:47:19;;;;;;;12.23;10.77;;;17.10;28.50;;;;;;10357645;28;20575;-71
2021/03/04 14:52:22;;;;;;;11.53;10.17;;;17.10;28.30;;;;;;10344095;28;20318;-71
2021/03/04 14:57:25;;;;;;;13.43;9.90;;;17.20;28.30;;;;;;10354843;28;20690;-71
2021/03/04 15:02:27;;;;;;;11.63;10.07;;;17.10;28.20;;;;;;10357959;28;20241;-71
2021/03/04 15:07:31;;;;;;;11.30;9.13;;;17.10;28.30;;;;;;10347673;28;20237;-71
2021/03/04 15:12:33;;;;;;;13.33;10.10;;;17.20;28.20;;;;;;10345743;28;20229;-72
2021/03/04 15:17:36;;;;;;;12.60;9.90;;;17.20;28.30;;;;;;10353517;28;20238;-71
2021/03/04 15:22:40;;;;;;;11.77;9.33;;;17.20;28.30;;;;;;10356799;28;20223;-71
2021/03/04 15:27:42;;;;;;;12.80;9.53;;;17.20;28.10;;;;;;10362114;28;20226;-71
2021/03/04 15:32:44;;;;;;;13.80;9.40;;;17.20;28.30;;;;;;10361469;28;21007;-72
2021/03/04 15:37:47;;;;;;;9.83;8.57;;;17.20;28.20;;;;;;10356401;28;20621;-72
2021/03/04 15:42:50;;;;;;;11.80;9.40;;;17.20;27.90;;;;;;10364280;28;20244;-71
2021/03/04 15:47:52;;;;;;;12.17;9.40;;;17.10;28.00;;;;;;10351120;28;20230;-72
2021/03/04 15:52:56;;;;;;;10.37;8.40;;;17.10;28.00;;;;;;10360627;28;20234;-72
2021/03/04 15:57:58;;;;;;;12.93;8.87;;;17.10;27.90;;;;;;10358572;28;20587;-71
2021/03/04 16:03:01;;;;;;;12.87;8.27;;;17.00;28.00;;;;;;10378914;28;20235;-72
2021/03/04 16:08:06;;;;;;;9.80;8.53;;;17.00;27.80;;;;;;10376789;28;20245;-72
2021/03/04 16:13:08;;;;;;;11.07;8.17;;;17.00;27.50;;;;;;10376435;28;20325;-71
2021/03/04 16:18:10;;;;;;;12.20;8.40;;;17.00;27.80;;;;;;10364858;28;20609;-71
2021/03/04 16:23:15;;;;;;;10.47;8.50;;;16.90;27.80;;;;;;10368655;28;20661;-71
2021/03/04 16:28:18;;;;;;;12.57;9.67;;;16.90;27.60;;;;;;10370220;28;20253;-71
2021/03/04 16:33:20;;;;;;;12.93;9.30;;;16.80;27.70;;;;;;10372062;28;20321;-72
2021/03/04 16:38:24;;;;;;;14.30;9.47;;;16.80;27.70;;;;;;10366686;28;20222;-72
2021/03/04 16:43:26;;;;;;;16.23;10.70;;;16.70;27.50;;;;;;10376279;28;20260;-73
2021/03/04 16:48:29;;;;;;;14.67;12.67;;;16.60;27.70;;;;;;10372201;28;20249;-74
2021/03/04 16:53:33;;;;;;;20.43;16.00;;;16.60;27.70;;;;;;10372740;28;20597;-74
2021/03/04 16:58:35;;;;;;;21.67;16.60;;;16.50;27.70;;;;;;10369029;28;20233;-73
2021/03/04 17:03:38;;;;;;;19.63;17.57;;;16.50;27.80;;;;;;10380950;28;20629;-73
2021/03/04 17:08:42;;;;;;;17.47;15.63;;;16.50;27.90;;;;;;10368064;28;20229;-73
2021/03/04 17:13:44;;;;;;;17.17;12.47;;;16.50;28.10;;;;;;10367755;28;20227;-74
2021/03/04 17:18:46;;;;;;;24.57;18.20;;;16.40;27.80;;;;;;10372736;28;20576;-73
2021/03/04 17:23:49;;;;;;;23.67;17.13;;;16.40;27.70;;;;;;10366755;28;20226;-73
2021/03/04 17:28:52;;;;;;;15.73;12.87;;;16.30;27.60;;;;;;10368051;28;20226;-74
2021/03/04 17:33:54;;;;;;;16.37;12.13;;;16.20;27.70;;;;;;10363270;28;20230;-74
2021/03/04 17:39:01;;;;;;;16.77;10.80;;;16.10;27.80;;;;;;10365169;28;20304;-74
2021/03/04 17:44:03;;;;;;;18.20;12.83;;;16.10;27.70;;;;;;10366056;28;20230;-71
2021/03/04 17:49:08;;;;;;;16.60;11.40;;;16.00;27.70;;;;;;10368925;28;20756;-70
2021/03/04 17:54:11;;;;;;;15.60;9.73;;;15.80;27.80;;;;;;10366565;28;20237;-73
2021/03/04 17:59:13;;;;;;;15.27;10.00;;;15.70;27.70;;;;;;10368009;28;20702;-72
2021/03/04 18:04:16;;;;;;;16.70;11.73;;;15.70;27.80;;;;;;10395711;23;20275;-70
2021/03/04 18:09:19;;;;;;;11.77;9.73;;;15.70;27.80;;;;;;10453934;28;20342;-71
2021/03/04 18:14:21;;;;;;;11.47;8.50;;;15.60;27.50;;;;;;10476498;28;20264;-71
2021/03/04 18:19:23;;;;;;;14.00;8.27;;;15.60;27.60;;;;;;10470610;28;20232;-72
2021/03/04 18:24:26;;;;;;;16.17;8.77;;;15.50;27.50;;;;;;10481802;28;20233;-71
2021/03/04 18:29:29;;;;;;;13.37;8.70;;;15.50;27.50;;;;;;10463055;28;20293;-71
2021/03/04 18:34:31;;;;;;;12.87;11.10;;;15.40;27.60;;;;;;10483215;28;20224;-71
2021/03/04 18:39:34;;;;;;;17.13;11.17;;;15.40;27.60;;;;;;10485229;28;20223;-70
2021/03/04 18:44:36;;;;;;;14.67;10.53;;;15.40;27.60;;;;;;10484679;28;20302;-70
2021/03/04 18:49:39;;;;;;;14.87;9.77;;;15.30;27.70;;;;;;10513706;28;20255;-69
2021/03/04 18:54:42;;;;;;;14.80;10.37;;;15.30;27.80;;;;;;10513726;28;20707;-69
2021/03/04 18:59:44;;;;;;;15.33;10.60;;;15.20;27.70;;;;;;10501584;28;20223;-69
2021/03/04 19:04:46;;;;;;;12.73;9.57;;;15.20;27.90;;;;;;10476319;28;20224;-69
2021/03/04 19:09:49;;;;;;;15.27;9.40;;;15.10;27.90;;;;;;10490315;28;20227;-71
2021/03/04 19:14:52;;;;;;;12.73;7.30;;;15.10;27.80;;;;;;10516222;28;20232;-69
2021/03/04 19:19:54;;;;;;;11.27;7.00;;;15.00;27.80;;;;;;10518014;28;20232;-69
2021/03/04 19:24:57;;;;;;;13.17;8.10;;;14.90;27.80;;;;;;10508315;28;20277;-69
2021/03/04 19:29:59;;;;;;;15.87;10.33;;;14.90;28.00;;;;;;10499706;28;20357;-68
2021/03/04 19:35:03;;;;;;;13.13;9.13;;;14.80;28.40;;;;;;10494036;28;20308;-69
2021/03/04 19:40:08;;;;;;;15.20;7.80;;;14.70;27.90;;;;;;10484540;28;20228;-69
2021/03/04 19:45:11;;;;;;;15.23;9.10;;;14.60;28.00;;;;;;10484940;28;20838;-68
2021/03/04 19:50:14;;;;;;;15.13;9.13;;;14.50;28.00;;;;;;10460228;28;20583;-69
2021/03/04 19:55:17;;;;;;;14.17;9.37;;;14.40;28.00;;;;;;10458762;28;20850;-71
2021/03/04 20:00:20;;;;;;;15.10;10.50;;;14.30;28.10;;;;;;10475021;28;20603;-70
2021/03/04 20:05:22;;;;;;;11.87;7.60;;;14.20;28.00;;;;;;10500487;28;20629;-71
2021/03/04 20:10:26;;;;;;;10.80;6.43;;;14.20;28.10;;;;;;10502167;28;20719;-71
2021/03/04 20:15:29;;;;;;;10.67;6.40;;;14.10;28.10;;;;;;10490239;28;20240;-67
2021/03/04 20:20:31;;;;;;;9.90;6.23;;;14.10;28.20;;;;;;10461332;28;20229;-68
2021/03/04 20:25:36;;;;;;;8.23;6.43;;;14.10;28.30;;;;;;10464855;28;20278;-68
2021/03/04 20:30:38;;;;;;;12.40;6.27;;;14.10;28.30;;;;;;10476207;28;20335;-70
2021/03/04 20:35:41;;;;;;;10.30;6.37;;;14.00;28.30;;;;;;10472575;28;20252;-71
2021/03/04 20:40:44;;;;;;;11.03;6.67;;;14.00;28.30;;;;;;10456553;28;20252;-70
2021/03/04 20:45:47;;;;;;;11.70;5.90;;;14.00;28.30;;;;;;10477284;28;20267;-70
2021/03/04 20:50:49;;;;;;;11.87;5.93;;;14.00;28.40;;;;;;10457597;28;20374;-68
2021/03/04 20:55:52;;;;;;;9.37;5.33;;;13.90;28.50;;;;;;10467650;28;20221;-67
2021/03/04 21:00:55;;;;;;;8.73;5.63;;;14.00;28.50;;;;;;10469165;28;20229;-67
2021/03/04 21:05:57;;;;;;;10.83;5.20;;;13.90;28.40;;;;;;10463232;28;20225;-68
2021/03/04 21:11:00;;;;;;;9.73;5.47;;;13.90;28.50;;;;;;10464394;28;20244;-67
2021/03/04 21:16:03;;;;;;;10.20;5.70;;;13.90;28.60;;;;;;10457668;28;20231;-70
2021/03/04 21:21:06;;;;;;;9.40;5.10;;;13.90;28.60;;;;;;10468618;28;20747;-70
2021/03/04 21:26:09;;;;;;;10.37;5.70;;;13.90;28.70;;;;;;10460984;28;20224;-70
2021/03/04 21:31:11;;;;;;;9.50;6.13;;;13.90;28.80;;;;;;10468801;28;20220;-68
2021/03/04 21:36:14;;;;;;;10.27;5.73;;;13.90;28.80;;;;;;10473213;28;20212;-70
2021/03/04 21:41:17;;;;;;;9.67;6.10;;;13.80;29.10;;;;;;10450271;28;20251;-70
2021/03/04 21:46:19;;;;;;;10.93;5.90;;;13.70;29.70;;;;;;10474471;28;20228;-70
2021/03/04 21:51:22;;;;;;;12.23;6.20;;;13.60;29.70;;;;;;10467138;28;20239;-70
2021/03/04 21:56:25;;;;;;;11.40;6.90;;;13.50;30.00;;;;;;10463451;28;20224;-68
2021/03/04 22:01:27;;;;;;;13.93;6.50;;;13.40;30.70;;;;;;10459906;28;20237;-68
2021/03/04 22:06:34;;;;;;;10.80;6.87;;;13.20;30.50;;;;;;10459283;28;20233;-67
2021/03/04 22:11:37;;;;;;;10.30;7.43;;;13.00;30.50;;;;;;10454298;28;20608;-70
2021/03/04 22:16:39;;;;;;;12.17;7.63;;;12.90;31.20;;;;;;10475031;28;20312;-70
2021/03/04 22:21:42;;;;;;;12.23;7.97;;;12.80;31.30;;;;;;10467085;28;20229;-67
2021/03/04 22:26:45;;;;;;;10.90;8.03;;;12.60;31.50;;;;;;10455483;28;20231;-68
2021/03/04 22:31:47;;;;;;;12.57;8.00;;;12.50;32.10;;;;;;10466609;28;20311;-69
2021/03/04 22:36:55;;;;;;;9.27;7.53;;;12.30;32.30;;;;;;10463744;28;20227;-70
2021/03/04 22:41:58;;;;;;;8.33;6.83;;;12.10;32.60;;;;;;10462775;28;20323;-70
2021/03/04 22:47:01;;;;;;;9.33;7.00;;;12.00;33.10;;;;;;10507850;28;20212;-70
2021/03/04 22:52:05;;;;;;;7.97;6.90;;;11.90;33.20;;;;;;10509136;28;20306;-70
2021/03/04 22:57:10;;;;;;;12.07;7.03;;;11.80;33.40;;;;;;10500870;28;20227;-70
2021/03/04 23:02:12;;;;;;;10.37;6.17;;;11.80;33.90;;;;;;10509191;28;20228;-70
2021/03/04 23:07:19;;;;;;;9.80;5.97;;;11.80;33.50;;;;;;10498898;28;20228;-70
2021/03/04 23:12:22;;;;;;;10.90;5.33;;;11.70;33.80;;;;;;10501909;28;20615;-69
2021/03/04 23:17:25;;;;;;;9.33;5.10;;;11.70;33.80;;;;;;10505974;28;20228;-69
2021/03/04 23:22:28;;;;;;;7.30;5.40;;;11.70;33.70;;;;;;10520962;28;20603;-68
2021/03/04 23:27:31;;;;;;;11.03;5.53;;;11.70;33.90;;;;;;10523345;28;20250;-70
2021/03/04 23:32:33;;;;;;;9.90;5.30;;;11.60;34.20;;;;;;10511906;28;20592;-68
2021/03/04 23:37:41;;;;;;;11.03;5.33;;;11.60;34.10;;;;;;10491195;28;20278;-68
2021/03/04 23:42:45;;;;;;;8.77;5.90;;;11.60;34.70;;;;;;10487772;28;20666;-68
2021/03/04 23:47:48;;;;;;;9.07;5.70;;;11.50;34.80;;;;;;10482610;28;20234;-68
2021/03/04 23:52:51;;;;;;;6.50;5.27;;;11.50;34.70;;;;;;10495850;28;20228;-68
2021/03/04 23:57:54;;;;;;;6.17;5.07;;;11.50;34.80;;;;;;10483671;28;20236;-68
